sensor_id;sensor_type;location;lat;lon;timestamp;temperature;humidity
28632;DHT22;15818;45.534;5.292;2022-10-22T00:01:14;15.30;99.90
28632;DHT22;15818;45.534;5.292;2022-10-22T00:03:39;15.20;99.90
28632;DHT22;15818;45.534;5.292;2022-10-22T00:06:05;15.20;99.90
28632;DHT22;15818;45.534;5.292;2022-10-22T00:08:31;15.20;99.90
28632;DHT22;15818;45.534;5.292;2022-10-22T00:10:57;15.20;99.90
28632;DHT22;15818;45.534;5.292;2022-10-22T00:13:23;15.20;99.90
28632;DHT22;15818;45.534;5.292;2022-10-22T00:15:48;15.10;99.90
28632;DHT22;15818;45.534;5.292;2022-10-22T00:18:14;15.10;99.90
28632;DHT22;15818;45.534;5.292;2022-10-22T00:20:40;15.10;99.90
28632;DHT22;15818;45.534;5.292;2022-10-22T00:23:06;15.10;99.90
28632;DHT22;15818;45.534;5.292;2022-10-22T00:25:32;15.10;99.90
28632;DHT22;15818;45.534;5.292;2022-10-22T00:27:58;15.10;99.90
28632;DHT22;15818;45.534;5.292;2022-10-22T00:30:24;15.10;99.90
28632;DHT22;15818;45.534;5.292;2022-10-22T00:32:50;15.10;99.90
28632;DHT22;15818;45.534;5.292;2022-10-22T00:35:15;15.10;99.90
28632;DHT22;15818;45.534;5.292;2022-10-22T00:37:41;15.10;99.90
28632;DHT22;15818;45.534;5.292;2022-10-22T00:40:07;15.10;99.90
28632;DHT22;15818;45.534;5.292;2022-10-22T00:42:33;15.10;99.90
28632;DHT22;15818;45.534;5.292;2022-10-22T00:47:30;15.00;99.90
28632;DHT22;15818;45.534;5.292;2022-10-22T00:49:57;15.00;99.90
28632;DHT22;15818;45.534;5.292;2022-10-22T00:52:24;15.00;99.90
28632;DHT22;15818;45.534;5.292;2022-10-22T00:54:50;15.00;99.90
28632;DHT22;15818;45.534;5.292;2022-10-22T00:57:17;15.00;99.90
28632;DHT22;15818;45.534;5.292;2022-10-22T00:59:44;15.00;99.90
28632;DHT22;15818;45.534;5.292;2022-10-22T01:02:10;15.00;99.90
28632;DHT22;15818;45.534;5.292;2022-10-22T01:04:36;15.00;99.90
28632;DHT22;15818;45.534;5.292;2022-10-22T01:07:02;15.00;99.90
28632;DHT22;15818;45.534;5.292;2022-10-22T01:18:01;14.90;99.90
28632;DHT22;15818;45.534;5.292;2022-10-22T01:23:00;14.90;99.90
28632;DHT22;15818;45.534;5.292;2022-10-22T01:25:53;14.90;99.90
28632;DHT22;15818;45.534;5.292;2022-10-22T01:28:48;14.90;99.90
28632;DHT22;15818;45.534;5.292;2022-10-22T01:31:11;14.80;99.90
28632;DHT22;15818;45.534;5.292;2022-10-22T01:33:38;14.80;99.90
28632;DHT22;15818;45.534;5.292;2022-10-22T01:36:05;14.80;99.90
28632;DHT22;15818;45.534;5.292;2022-10-22T01:38:31;14.80;99.90
28632;DHT22;15818;45.534;5.292;2022-10-22T01:40:58;14.80;99.90
28632;DHT22;15818;45.534;5.292;2022-10-22T01:43:24;14.80;99.90
28632;DHT22;15818;45.534;5.292;2022-10-22T01:45:51;14.80;99.90
28632;DHT22;15818;45.534;5.292;2022-10-22T02:06:32;14.90;99.90
28632;DHT22;15818;45.534;5.292;2022-10-22T02:09:00;15.00;99.90
28632;DHT22;15818;45.534;5.292;2022-10-22T02:11:27;15.00;99.90
28632;DHT22;15818;45.534;5.292;2022-10-22T02:13:57;15.00;99.90
28632;DHT22;15818;45.534;5.292;2022-10-22T02:16:41;14.90;99.90
28632;DHT22;15818;45.534;5.292;2022-10-22T02:19:24;14.90;99.90
28632;DHT22;15818;45.534;5.292;2022-10-22T02:21:51;14.90;99.90
28632;DHT22;15818;45.534;5.292;2022-10-22T02:24:18;14.80;99.90
28632;DHT22;15818;45.534;5.292;2022-10-22T02:26:57;14.80;99.90
28632;DHT22;15818;45.534;5.292;2022-10-22T02:29:29;14.80;99.90
28632;DHT22;15818;45.534;5.292;2022-10-22T02:31:57;14.60;99.90
28632;DHT22;15818;45.534;5.292;2022-10-22T02:34:28;14.60;99.90
28632;DHT22;15818;45.534;5.292;2022-10-22T02:36:56;14.50;99.90
28632;DHT22;15818;45.534;5.292;2022-10-22T02:39:23;14.50;99.90
28632;DHT22;15818;45.534;5.292;2022-10-22T02:41:49;14.40;99.90
28632;DHT22;15818;45.534;5.292;2022-10-22T02:44:18;14.40;99.90
28632;DHT22;15818;45.534;5.292;2022-10-22T02:46:44;14.40;99.90
28632;DHT22;15818;45.534;5.292;2022-10-22T02:49:10;14.50;99.90
28632;DHT22;15818;45.534;5.292;2022-10-22T02:51:35;14.60;99.90
28632;DHT22;15818;45.534;5.292;2022-10-22T02:54:01;14.70;99.90
28632;DHT22;15818;45.534;5.292;2022-10-22T02:56:27;14.70;99.90
28632;DHT22;15818;45.534;5.292;2022-10-22T02:58:52;14.70;99.90
28632;DHT22;15818;45.534;5.292;2022-10-22T03:01:18;14.70;99.90
28632;DHT22;15818;45.534;5.292;2022-10-22T03:03:43;14.60;99.90
28632;DHT22;15818;45.534;5.292;2022-10-22T03:06:09;14.40;99.90
28632;DHT22;15818;45.534;5.292;2022-10-22T03:08:35;14.50;99.90
28632;DHT22;15818;45.534;5.292;2022-10-22T03:11:00;14.50;99.90
28632;DHT22;15818;45.534;5.292;2022-10-22T03:13:26;14.40;99.90
28632;DHT22;15818;45.534;5.292;2022-10-22T03:15:51;14.40;99.90
28632;DHT22;15818;45.534;5.292;2022-10-22T03:18:17;14.30;99.90
28632;DHT22;15818;45.534;5.292;2022-10-22T03:20:43;14.30;99.90
28632;DHT22;15818;45.534;5.292;2022-10-22T03:23:09;14.20;99.90
28632;DHT22;15818;45.534;5.292;2022-10-22T03:25:35;14.30;99.90
28632;DHT22;15818;45.534;5.292;2022-10-22T03:28:02;14.30;99.90
28632;DHT22;15818;45.534;5.292;2022-10-22T03:30:28;14.40;99.90
28632;DHT22;15818;45.534;5.292;2022-10-22T03:32:54;14.30;99.90
28632;DHT22;15818;45.534;5.292;2022-10-22T03:35:19;14.30;99.90
28632;DHT22;15818;45.534;5.292;2022-10-22T03:37:45;14.20;99.90
28632;DHT22;15818;45.534;5.292;2022-10-22T03:40:11;14.10;99.90
28632;DHT22;15818;45.534;5.292;2022-10-22T03:42:39;14.10;99.90
28632;DHT22;15818;45.534;5.292;2022-10-22T03:45:05;14.00;99.90
28632;DHT22;15818;45.534;5.292;2022-10-22T03:47:31;14.00;99.90
28632;DHT22;15818;45.534;5.292;2022-10-22T03:49:56;14.10;99.90
28632;DHT22;15818;45.534;5.292;2022-10-22T03:52:22;14.00;99.90
28632;DHT22;15818;45.534;5.292;2022-10-22T03:54:48;14.00;99.90
28632;DHT22;15818;45.534;5.292;2022-10-22T03:57:13;13.90;99.90
28632;DHT22;15818;45.534;5.292;2022-10-22T03:59:40;13.90;99.90
28632;DHT22;15818;45.534;5.292;2022-10-22T04:02:06;13.90;99.90
28632;DHT22;15818;45.534;5.292;2022-10-22T04:04:32;14.00;99.90
28632;DHT22;15818;45.534;5.292;2022-10-22T04:06:58;14.00;99.90
28632;DHT22;15818;45.534;5.292;2022-10-22T04:09:23;14.00;99.90
28632;DHT22;15818;45.534;5.292;2022-10-22T04:11:49;14.00;99.90
28632;DHT22;15818;45.534;5.292;2022-10-22T04:14:14;14.00;99.90
28632;DHT22;15818;45.534;5.292;2022-10-22T04:16:40;14.00;99.90
28632;DHT22;15818;45.534;5.292;2022-10-22T04:19:06;14.00;99.90
28632;DHT22;15818;45.534;5.292;2022-10-22T04:21:32;14.00;99.90
28632;DHT22;15818;45.534;5.292;2022-10-22T04:23:58;14.10;99.90
28632;DHT22;15818;45.534;5.292;2022-10-22T04:26:24;14.20;99.90
28632;DHT22;15818;45.534;5.292;2022-10-22T04:28:50;14.10;99.90
28632;DHT22;15818;45.534;5.292;2022-10-22T04:31:20;14.00;99.90
28632;DHT22;15818;45.534;5.292;2022-10-22T04:33:46;14.00;99.90
28632;DHT22;15818;45.534;5.292;2022-10-22T04:36:15;13.90;99.90
28632;DHT22;15818;45.534;5.292;2022-10-22T04:38:42;13.70;99.90
28632;DHT22;15818;45.534;5.292;2022-10-22T04:41:10;13.60;99.90
28632;DHT22;15818;45.534;5.292;2022-10-22T04:43:36;13.60;99.90
28632;DHT22;15818;45.534;5.292;2022-10-22T04:46:02;13.60;99.90
28632;DHT22;15818;45.534;5.292;2022-10-22T04:48:28;13.70;99.90
28632;DHT22;15818;45.534;5.292;2022-10-22T04:50:55;13.60;99.90
28632;DHT22;15818;45.534;5.292;2022-10-22T04:53:21;13.70;99.90
28632;DHT22;15818;45.534;5.292;2022-10-22T04:55:46;13.80;99.90
28632;DHT22;15818;45.534;5.292;2022-10-22T04:58:12;13.80;99.90
28632;DHT22;15818;45.534;5.292;2022-10-22T05:00:37;13.90;99.90
28632;DHT22;15818;45.534;5.292;2022-10-22T05:03:03;13.90;99.90
28632;DHT22;15818;45.534;5.292;2022-10-22T05:05:29;14.00;99.90
28632;DHT22;15818;45.534;5.292;2022-10-22T05:07:54;14.00;99.90
28632;DHT22;15818;45.534;5.292;2022-10-22T05:10:20;14.00;99.90
28632;DHT22;15818;45.534;5.292;2022-10-22T05:12:45;14.00;99.90
28632;DHT22;15818;45.534;5.292;2022-10-22T05:15:11;13.90;99.90
28632;DHT22;15818;45.534;5.292;2022-10-22T05:17:37;13.90;99.90
28632;DHT22;15818;45.534;5.292;2022-10-22T05:20:03;13.90;99.90
28632;DHT22;15818;45.534;5.292;2022-10-22T05:22:29;13.90;99.90
28632;DHT22;15818;45.534;5.292;2022-10-22T05:24:55;13.70;99.90
28632;DHT22;15818;45.534;5.292;2022-10-22T05:27:20;13.50;99.90
28632;DHT22;15818;45.534;5.292;2022-10-22T05:29:46;13.50;99.90
28632;DHT22;15818;45.534;5.292;2022-10-22T05:32:12;13.40;99.90
28632;DHT22;15818;45.534;5.292;2022-10-22T05:34:37;13.30;99.90
28632;DHT22;15818;45.534;5.292;2022-10-22T05:37:03;13.20;99.90
28632;DHT22;15818;45.534;5.292;2022-10-22T05:39:29;13.20;99.90
28632;DHT22;15818;45.534;5.292;2022-10-22T05:41:54;13.20;99.90
28632;DHT22;15818;45.534;5.292;2022-10-22T05:44:20;13.20;99.90
28632;DHT22;15818;45.534;5.292;2022-10-22T05:46:45;13.30;99.90
28632;DHT22;15818;45.534;5.292;2022-10-22T05:49:13;13.20;99.90
28632;DHT22;15818;45.534;5.292;2022-10-22T05:51:40;13.20;99.90
28632;DHT22;15818;45.534;5.292;2022-10-22T05:54:06;13.10;99.90
28632;DHT22;15818;45.534;5.292;2022-10-22T05:56:33;13.10;99.90
28632;DHT22;15818;45.534;5.292;2022-10-22T05:58:59;13.10;99.90
28632;DHT22;15818;45.534;5.292;2022-10-22T06:01:31;13.10;99.90
28632;DHT22;15818;45.534;5.292;2022-10-22T06:03:59;13.20;99.90
28632;DHT22;15818;45.534;5.292;2022-10-22T06:06:38;13.20;99.90
28632;DHT22;15818;45.534;5.292;2022-10-22T06:09:25;13.20;99.90
28632;DHT22;15818;45.534;5.292;2022-10-22T06:11:52;13.10;99.90
28632;DHT22;15818;45.534;5.292;2022-10-22T06:14:18;13.20;99.90
28632;DHT22;15818;45.534;5.292;2022-10-22T06:16:43;13.20;99.90
28632;DHT22;15818;45.534;5.292;2022-10-22T06:19:10;13.30;99.90
28632;DHT22;15818;45.534;5.292;2022-10-22T06:21:36;13.40;99.90
28632;DHT22;15818;45.534;5.292;2022-10-22T06:24:02;13.40;99.90
28632;DHT22;15818;45.534;5.292;2022-10-22T06:26:28;13.50;99.90
28632;DHT22;15818;45.534;5.292;2022-10-22T06:28:54;13.50;99.90
28632;DHT22;15818;45.534;5.292;2022-10-22T06:31:21;13.50;99.90
28632;DHT22;15818;45.534;5.292;2022-10-22T06:33:47;13.50;99.90
28632;DHT22;15818;45.534;5.292;2022-10-22T06:36:14;13.50;99.90
28632;DHT22;15818;45.534;5.292;2022-10-22T06:38:40;13.40;99.90
28632;DHT22;15818;45.534;5.292;2022-10-22T06:41:09;13.50;99.90
28632;DHT22;15818;45.534;5.292;2022-10-22T06:43:35;13.50;99.90
28632;DHT22;15818;45.534;5.292;2022-10-22T06:46:02;13.50;99.90
28632;DHT22;15818;45.534;5.292;2022-10-22T06:48:28;13.60;99.90
28632;DHT22;15818;45.534;5.292;2022-10-22T06:50:54;13.70;99.90
28632;DHT22;15818;45.534;5.292;2022-10-22T06:53:19;13.70;99.90
28632;DHT22;15818;45.534;5.292;2022-10-22T06:55:45;13.80;99.90
28632;DHT22;15818;45.534;5.292;2022-10-22T06:58:11;13.90;99.90
28632;DHT22;15818;45.534;5.292;2022-10-22T07:00:36;14.00;99.90
28632;DHT22;15818;45.534;5.292;2022-10-22T07:03:02;13.90;99.90
28632;DHT22;15818;45.534;5.292;2022-10-22T07:05:27;13.90;99.90
28632;DHT22;15818;45.534;5.292;2022-10-22T07:07:53;13.80;99.90
28632;DHT22;15818;45.534;5.292;2022-10-22T07:10:19;13.90;99.90
28632;DHT22;15818;45.534;5.292;2022-10-22T07:12:44;14.00;99.90
28632;DHT22;15818;45.534;5.292;2022-10-22T07:15:10;14.00;99.90
28632;DHT22;15818;45.534;5.292;2022-10-22T07:17:36;14.10;99.90
28632;DHT22;15818;45.534;5.292;2022-10-22T07:20:01;14.20;99.90
28632;DHT22;15818;45.534;5.292;2022-10-22T07:22:27;14.40;99.90
28632;DHT22;15818;45.534;5.292;2022-10-22T07:24:53;14.50;99.90
28632;DHT22;15818;45.534;5.292;2022-10-22T07:27:18;14.70;99.90
28632;DHT22;15818;45.534;5.292;2022-10-22T07:29:44;14.80;99.90
28632;DHT22;15818;45.534;5.292;2022-10-22T07:32:10;14.90;99.90
28632;DHT22;15818;45.534;5.292;2022-10-22T07:34:36;15.10;99.90
28632;DHT22;15818;45.534;5.292;2022-10-22T07:37:01;15.30;99.90
28632;DHT22;15818;45.534;5.292;2022-10-22T07:39:27;15.40;99.90
28632;DHT22;15818;45.534;5.292;2022-10-22T07:41:53;15.60;99.90
28632;DHT22;15818;45.534;5.292;2022-10-22T07:44:19;15.70;99.90
28632;DHT22;15818;45.534;5.292;2022-10-22T07:46:44;15.80;99.90
28632;DHT22;15818;45.534;5.292;2022-10-22T07:49:10;16.20;99.90
28632;DHT22;15818;45.534;5.292;2022-10-22T07:51:35;16.60;99.90
28632;DHT22;15818;45.534;5.292;2022-10-22T07:54:01;16.50;99.90
28632;DHT22;15818;45.534;5.292;2022-10-22T07:56:27;16.60;99.90
28632;DHT22;15818;45.534;5.292;2022-10-22T07:58:52;16.70;99.90
28632;DHT22;15818;45.534;5.292;2022-10-22T08:01:18;16.90;99.90
28632;DHT22;15818;45.534;5.292;2022-10-22T08:03:43;17.00;99.90
28632;DHT22;15818;45.534;5.292;2022-10-22T08:06:12;17.50;99.90
28632;DHT22;15818;45.534;5.292;2022-10-22T08:08:37;17.60;99.90
28632;DHT22;15818;45.534;5.292;2022-10-22T08:11:03;18.00;99.90
28632;DHT22;15818;45.534;5.292;2022-10-22T08:13:29;18.80;99.90
28632;DHT22;15818;45.534;5.292;2022-10-22T08:15:57;19.40;99.90
28632;DHT22;15818;45.534;5.292;2022-10-22T08:18:22;19.50;99.90
28632;DHT22;15818;45.534;5.292;2022-10-22T08:20:48;19.90;99.90
28632;DHT22;15818;45.534;5.292;2022-10-22T08:23:14;20.20;99.90
28632;DHT22;15818;45.534;5.292;2022-10-22T08:25:39;21.20;99.90
28632;DHT22;15818;45.534;5.292;2022-10-22T08:28:05;22.10;99.90
28632;DHT22;15818;45.534;5.292;2022-10-22T08:30:31;21.70;99.90
28632;DHT22;15818;45.534;5.292;2022-10-22T08:32:58;22.40;99.90
28632;DHT22;15818;45.534;5.292;2022-10-22T08:35:23;22.20;99.90
28632;DHT22;15818;45.534;5.292;2022-10-22T08:37:49;22.90;99.90
28632;DHT22;15818;45.534;5.292;2022-10-22T08:40:34;23.00;99.90
28632;DHT22;15818;45.534;5.292;2022-10-22T08:43:28;22.80;99.90
28632;DHT22;15818;45.534;5.292;2022-10-22T08:46:08;23.60;99.90
28632;DHT22;15818;45.534;5.292;2022-10-22T08:51:11;23.00;99.90
28632;DHT22;15818;45.534;5.292;2022-10-22T08:54:00;22.40;99.90
28632;DHT22;15818;45.534;5.292;2022-10-22T08:56:29;22.40;99.90
28632;DHT22;15818;45.534;5.292;2022-10-22T08:59:04;23.00;99.90
28632;DHT22;15818;45.534;5.292;2022-10-22T09:01:36;23.50;99.90
28632;DHT22;15818;45.534;5.292;2022-10-22T09:04:15;24.50;99.90
28632;DHT22;15818;45.534;5.292;2022-10-22T09:06:44;25.40;99.90
28632;DHT22;15818;45.534;5.292;2022-10-22T09:09:17;26.00;99.90
28632;DHT22;15818;45.534;5.292;2022-10-22T09:11:49;27.60;99.90
28632;DHT22;15818;45.534;5.292;2022-10-22T09:14:20;28.20;99.90
28632;DHT22;15818;45.534;5.292;2022-10-22T09:25:30;29.00;99.90
28632;DHT22;15818;45.534;5.292;2022-10-22T09:27:56;29.60;99.90
28632;DHT22;15818;45.534;5.292;2022-10-22T09:30:27;30.10;99.90
28632;DHT22;15818;45.534;5.292;2022-10-22T09:33:06;30.50;99.90
28632;DHT22;15818;45.534;5.292;2022-10-22T09:35:53;30.70;99.90
28632;DHT22;15818;45.534;5.292;2022-10-22T09:38:24;31.30;99.90
28632;DHT22;15818;45.534;5.292;2022-10-22T09:40:53;31.70;99.90
28632;DHT22;15818;45.534;5.292;2022-10-22T09:43:19;31.60;99.90
28632;DHT22;15818;45.534;5.292;2022-10-22T09:45:46;31.60;99.90
28632;DHT22;15818;45.534;5.292;2022-10-22T09:50:46;31.70;99.90
28632;DHT22;15818;45.534;5.292;2022-10-22T09:53:14;30.80;99.90
28632;DHT22;15818;45.534;5.292;2022-10-22T09:55:43;31.50;99.90
28632;DHT22;15818;45.534;5.292;2022-10-22T09:58:13;32.00;99.90
28632;DHT22;15818;45.534;5.292;2022-10-22T10:00:42;32.40;99.90
28632;DHT22;15818;45.534;5.292;2022-10-22T10:03:19;31.80;99.90
28632;DHT22;15818;45.534;5.292;2022-10-22T10:05:51;31.90;99.90
28632;DHT22;15818;45.534;5.292;2022-10-22T10:08:17;31.60;99.90
28632;DHT22;15818;45.534;5.292;2022-10-22T10:10:55;31.30;99.90
28632;DHT22;15818;45.534;5.292;2022-10-22T10:19:09;33.60;99.90
28632;DHT22;15818;45.534;5.292;2022-10-22T10:27:37;32.00;99.90
28632;DHT22;15818;45.534;5.292;2022-10-22T10:30:16;32.80;99.90
28632;DHT22;15818;45.534;5.292;2022-10-22T10:46:26;32.60;99.90
28632;DHT22;15818;45.534;5.292;2022-10-22T10:56:46;34.00;99.90
28632;DHT22;15818;45.534;5.292;2022-10-22T11:02:42;31.90;99.90
28632;DHT22;15818;45.534;5.292;2022-10-22T11:07:56;32.80;99.90
28632;DHT22;15818;45.534;5.292;2022-10-22T11:10:29;32.40;99.90
28632;DHT22;15818;45.534;5.292;2022-10-22T11:13:39;31.80;99.90
28632;DHT22;15818;45.534;5.292;2022-10-22T11:16:31;32.40;99.90
28632;DHT22;15818;45.534;5.292;2022-10-22T11:22:17;33.90;99.90
28632;DHT22;15818;45.534;5.292;2022-10-22T11:27:36;32.90;99.90
28632;DHT22;15818;45.534;5.292;2022-10-22T11:30:18;33.90;99.90
28632;DHT22;15818;45.534;5.292;2022-10-22T11:32:52;34.20;99.90
28632;DHT22;15818;45.534;5.292;2022-10-22T11:35:25;34.60;99.90
28632;DHT22;15818;45.534;5.292;2022-10-22T11:37:54;34.20;99.90
28632;DHT22;15818;45.534;5.292;2022-10-22T11:43:25;34.10;99.90
28632;DHT22;15818;45.534;5.292;2022-10-22T11:45:40;34.10;99.90
28632;DHT22;15818;45.534;5.292;2022-10-22T12:11:23;35.00;99.90
28632;DHT22;15818;45.534;5.292;2022-10-22T12:16:40;34.60;99.90
28632;DHT22;15818;45.534;5.292;2022-10-22T12:19:29;35.00;99.90
28632;DHT22;15818;45.534;5.292;2022-10-22T12:22:11;34.70;99.90
28632;DHT22;15818;45.534;5.292;2022-10-22T12:24:41;34.40;99.90
28632;DHT22;15818;45.534;5.292;2022-10-22T12:27:27;33.80;99.90
28632;DHT22;15818;45.534;5.292;2022-10-22T12:29:57;33.90;99.90
28632;DHT22;15818;45.534;5.292;2022-10-22T12:32:40;33.50;99.90
28632;DHT22;15818;45.534;5.292;2022-10-22T12:35:10;34.90;99.90
28632;DHT22;15818;45.534;5.292;2022-10-22T12:37:39;34.80;99.90
28632;DHT22;15818;45.534;5.292;2022-10-22T12:42:55;34.00;99.90
28632;DHT22;15818;45.534;5.292;2022-10-22T12:45:25;33.20;99.90
28632;DHT22;15818;45.534;5.292;2022-10-22T12:47:56;32.80;99.90
28632;DHT22;15818;45.534;5.292;2022-10-22T12:50:35;33.20;99.90
28632;DHT22;15818;45.534;5.292;2022-10-22T12:53:05;33.50;99.90
28632;DHT22;15818;45.534;5.292;2022-10-22T12:55:34;34.30;99.90
28632;DHT22;15818;45.534;5.292;2022-10-22T12:58:04;33.50;99.90
28632;DHT22;15818;45.534;5.292;2022-10-22T13:00:33;33.40;99.90
28632;DHT22;15818;45.534;5.292;2022-10-22T13:03:03;33.90;99.90
28632;DHT22;15818;45.534;5.292;2022-10-22T13:05:33;33.20;99.90
28632;DHT22;15818;45.534;5.292;2022-10-22T13:08:08;31.10;99.90
28632;DHT22;15818;45.534;5.292;2022-10-22T13:10:47;30.90;99.90
28632;DHT22;15818;45.534;5.292;2022-10-22T13:13:30;30.50;99.90
28632;DHT22;15818;45.534;5.292;2022-10-22T13:16:21;29.70;99.90
28632;DHT22;15818;45.534;5.292;2022-10-22T13:18:49;31.20;99.90
28632;DHT22;15818;45.534;5.292;2022-10-22T13:21:28;30.20;99.90
28632;DHT22;15818;45.534;5.292;2022-10-22T13:24:22;30.20;99.90
28632;DHT22;15818;45.534;5.292;2022-10-22T13:26:51;30.90;99.90
28632;DHT22;15818;45.534;5.292;2022-10-22T13:29:21;30.20;99.90
28632;DHT22;15818;45.534;5.292;2022-10-22T13:31:52;30.30;99.90
28632;DHT22;15818;45.534;5.292;2022-10-22T13:34:20;30.40;99.90
28632;DHT22;15818;45.534;5.292;2022-10-22T13:36:47;30.10;99.90
28632;DHT22;15818;45.534;5.292;2022-10-22T13:39:17;30.60;99.90
28632;DHT22;15818;45.534;5.292;2022-10-22T13:41:43;31.10;99.90
28632;DHT22;15818;45.534;5.292;2022-10-22T13:44:09;31.00;99.90
28632;DHT22;15818;45.534;5.292;2022-10-22T13:46:35;30.80;99.90
28632;DHT22;15818;45.534;5.292;2022-10-22T13:49:14;30.40;99.90
28632;DHT22;15818;45.534;5.292;2022-10-22T13:51:41;30.50;99.90
28632;DHT22;15818;45.534;5.292;2022-10-22T13:54:19;30.70;99.90
28632;DHT22;15818;45.534;5.292;2022-10-22T13:56:45;30.40;99.90
28632;DHT22;15818;45.534;5.292;2022-10-22T13:59:11;30.50;99.90
28632;DHT22;15818;45.534;5.292;2022-10-22T14:01:38;29.70;99.90
28632;DHT22;15818;45.534;5.292;2022-10-22T14:04:05;29.60;99.90
28632;DHT22;15818;45.534;5.292;2022-10-22T14:06:32;29.90;99.90
28632;DHT22;15818;45.534;5.292;2022-10-22T14:09:05;30.00;99.90
28632;DHT22;15818;45.534;5.292;2022-10-22T14:11:33;30.00;99.90
28632;DHT22;15818;45.534;5.292;2022-10-22T14:14:00;29.40;99.90
28632;DHT22;15818;45.534;5.292;2022-10-22T14:16:30;29.40;99.90
28632;DHT22;15818;45.534;5.292;2022-10-22T14:18:58;29.60;99.90
28632;DHT22;15818;45.534;5.292;2022-10-22T14:21:24;28.80;99.90
28632;DHT22;15818;45.534;5.292;2022-10-22T14:23:50;28.90;99.90
28632;DHT22;15818;45.534;5.292;2022-10-22T14:26:31;29.10;99.90
28632;DHT22;15818;45.534;5.292;2022-10-22T14:28:59;29.00;99.90
28632;DHT22;15818;45.534;5.292;2022-10-22T14:31:25;28.60;99.90
28632;DHT22;15818;45.534;5.292;2022-10-22T14:33:51;27.90;99.90
28632;DHT22;15818;45.534;5.292;2022-10-22T14:36:18;27.30;99.90
28632;DHT22;15818;45.534;5.292;2022-10-22T14:38:45;27.20;99.90
28632;DHT22;15818;45.534;5.292;2022-10-22T14:43:41;26.60;99.90
28632;DHT22;15818;45.534;5.292;2022-10-22T14:46:09;26.30;99.90
28632;DHT22;15818;45.534;5.292;2022-10-22T14:48:35;26.00;99.90
28632;DHT22;15818;45.534;5.292;2022-10-22T14:51:01;25.80;99.90
28632;DHT22;15818;45.534;5.292;2022-10-22T14:53:26;25.60;99.90
28632;DHT22;15818;45.534;5.292;2022-10-22T14:55:52;25.40;99.90
28632;DHT22;15818;45.534;5.292;2022-10-22T14:58:22;25.70;99.90
28632;DHT22;15818;45.534;5.292;2022-10-22T15:00:47;25.70;99.90
28632;DHT22;15818;45.534;5.292;2022-10-22T15:03:13;25.60;99.90
28632;DHT22;15818;45.534;5.292;2022-10-22T15:05:40;25.60;99.90
28632;DHT22;15818;45.534;5.292;2022-10-22T15:08:09;25.30;99.90
28632;DHT22;15818;45.534;5.292;2022-10-22T15:10:35;25.00;99.90
28632;DHT22;15818;45.534;5.292;2022-10-22T15:13:01;24.90;99.90
28632;DHT22;15818;45.534;5.292;2022-10-22T15:15:26;25.00;99.90
28632;DHT22;15818;45.534;5.292;2022-10-22T15:17:52;24.80;99.90
28632;DHT22;15818;45.534;5.292;2022-10-22T15:20:18;24.70;99.90
28632;DHT22;15818;45.534;5.292;2022-10-22T15:22:43;24.40;99.90
28632;DHT22;15818;45.534;5.292;2022-10-22T15:25:12;24.40;99.90
28632;DHT22;15818;45.534;5.292;2022-10-22T15:27:38;24.50;99.90
28632;DHT22;15818;45.534;5.292;2022-10-22T15:30:05;24.40;99.90
28632;DHT22;15818;45.534;5.292;2022-10-22T15:32:31;24.40;99.90
28632;DHT22;15818;45.534;5.292;2022-10-22T15:34:59;24.40;99.90
28632;DHT22;15818;45.534;5.292;2022-10-22T15:37:26;24.30;99.90
28632;DHT22;15818;45.534;5.292;2022-10-22T15:39:51;24.20;99.90
28632;DHT22;15818;45.534;5.292;2022-10-22T15:42:17;23.80;99.90
28632;DHT22;15818;45.534;5.292;2022-10-22T15:44:44;23.60;99.90
28632;DHT22;15818;45.534;5.292;2022-10-22T15:47:10;23.50;99.90
28632;DHT22;15818;45.534;5.292;2022-10-22T15:49:37;23.40;99.90
28632;DHT22;15818;45.534;5.292;2022-10-22T15:52:04;23.10;99.90
28632;DHT22;15818;45.534;5.292;2022-10-22T15:54:30;23.00;99.90
28632;DHT22;15818;45.534;5.292;2022-10-22T15:56:57;22.70;99.90
28632;DHT22;15818;45.534;5.292;2022-10-22T15:59:24;22.70;99.90
28632;DHT22;15818;45.534;5.292;2022-10-22T16:01:50;22.70;99.90
28632;DHT22;15818;45.534;5.292;2022-10-22T16:04:16;22.80;99.90
28632;DHT22;15818;45.534;5.292;2022-10-22T16:06:50;22.70;99.90
28632;DHT22;15818;45.534;5.292;2022-10-22T16:09:21;22.50;99.90
28632;DHT22;15818;45.534;5.292;2022-10-22T16:11:48;22.40;99.90
28632;DHT22;15818;45.534;5.292;2022-10-22T16:14:15;22.20;99.90
28632;DHT22;15818;45.534;5.292;2022-10-22T16:16:43;22.10;99.90
28632;DHT22;15818;45.534;5.292;2022-10-22T16:19:14;22.00;99.90
28632;DHT22;15818;45.534;5.292;2022-10-22T16:21:40;22.00;99.90
28632;DHT22;15818;45.534;5.292;2022-10-22T16:24:08;22.10;99.90
28632;DHT22;15818;45.534;5.292;2022-10-22T16:26:35;21.90;99.90
28632;DHT22;15818;45.534;5.292;2022-10-22T16:29:01;21.60;99.90
28632;DHT22;15818;45.534;5.292;2022-10-22T16:31:27;21.70;99.90
28632;DHT22;15818;45.534;5.292;2022-10-22T16:33:52;21.60;99.90
28632;DHT22;15818;45.534;5.292;2022-10-22T16:36:19;21.50;99.90
28632;DHT22;15818;45.534;5.292;2022-10-22T16:38:46;21.60;99.90
28632;DHT22;15818;45.534;5.292;2022-10-22T16:43:42;21.30;99.90
28632;DHT22;15818;45.534;5.292;2022-10-22T16:46:09;21.10;99.90
28632;DHT22;15818;45.534;5.292;2022-10-22T16:48:35;21.20;99.90
28632;DHT22;15818;45.534;5.292;2022-10-22T16:51:08;21.00;99.90
28632;DHT22;15818;45.534;5.292;2022-10-22T16:53:35;20.60;99.90
28632;DHT22;15818;45.534;5.292;2022-10-22T16:56:01;20.60;99.90
28632;DHT22;15818;45.534;5.292;2022-10-22T16:58:27;20.50;99.90
28632;DHT22;15818;45.534;5.292;2022-10-22T17:00:53;20.50;99.90
28632;DHT22;15818;45.534;5.292;2022-10-22T17:03:19;20.50;99.90
28632;DHT22;15818;45.534;5.292;2022-10-22T17:05:44;20.40;99.90
28632;DHT22;15818;45.534;5.292;2022-10-22T17:08:10;20.30;99.90
28632;DHT22;15818;45.534;5.292;2022-10-22T17:10:37;20.30;99.90
28632;DHT22;15818;45.534;5.292;2022-10-22T17:13:04;20.30;99.90
28632;DHT22;15818;45.534;5.292;2022-10-22T17:15:30;20.10;99.90
28632;DHT22;15818;45.534;5.292;2022-10-22T17:17:58;20.10;99.90
28632;DHT22;15818;45.534;5.292;2022-10-22T17:20:24;20.10;99.90
28632;DHT22;15818;45.534;5.292;2022-10-22T17:22:50;20.00;99.90
28632;DHT22;15818;45.534;5.292;2022-10-22T17:25:21;20.00;99.90
28632;DHT22;15818;45.534;5.292;2022-10-22T17:27:47;20.00;99.90
28632;DHT22;15818;45.534;5.292;2022-10-22T17:30:18;19.80;99.90
28632;DHT22;15818;45.534;5.292;2022-10-22T17:32:44;19.70;99.90
28632;DHT22;15818;45.534;5.292;2022-10-22T17:35:10;19.70;99.90
28632;DHT22;15818;45.534;5.292;2022-10-22T17:37:36;19.50;99.90
28632;DHT22;15818;45.534;5.292;2022-10-22T17:40:04;19.40;99.90
28632;DHT22;15818;45.534;5.292;2022-10-22T17:42:30;19.30;99.90
28632;DHT22;15818;45.534;5.292;2022-10-22T17:44:56;19.40;99.90